Time;durP1;ratioP1;P1;durP2;ratioP2;P2;SDS_P1;SDS_P2;PMS_P1;PMS_P2;Temp;Humidity;BMP_temperature;BMP_pressure;BME280_temperature;BME280_humidity;BME280_pressure;Samples;Min_cycle;Max_cycle;Signal;HPM_P1;HPM_P2
2024/03/06 00:00:36;;;;;;;1.20;1.08;;;7.10;99.90;;;;;;4933877;29;20058;-64
2024/03/06 00:03:03;;;;;;;2.60;1.50;;;7.10;99.90;;;;;;4933278;29;20400;-63
2024/03/06 00:05:30;;;;;;;1.33;1.23;;;7.00;99.90;;;;;;4931598;29;20146;-63
2024/03/06 00:07:56;;;;;;;1.48;1.30;;;6.90;99.90;;;;;;4931079;29;20095;-64
2024/03/06 00:10:23;;;;;;;3.47;1.73;;;6.90;99.90;;;;;;4930695;28;20348;-63
2024/03/06 00:12:50;;;;;;;4.05;2.35;;;7.00;99.90;;;;;;4943427;29;20055;-63
2024/03/06 00:15:17;;;;;;;3.22;2.13;;;6.90;99.90;;;;;;4938143;29;20047;-63
2024/03/06 00:17:43;;;;;;;2.53;1.80;;;6.90;99.90;;;;;;4934090;29;20062;-63
2024/03/06 00:20:11;;;;;;;3.40;1.95;;;6.90;99.90;;;;;;4931779;29;20067;-64
2024/03/06 00:22:37;;;;;;;3.63;1.70;;;7.00;99.90;;;;;;4941642;29;20528;-64
2024/03/06 00:25:04;;;;;;;5.07;2.17;;;6.90;99.90;;;;;;4933260;29;20594;-63
2024/03/06 00:27:31;;;;;;;2.90;2.10;;;6.90;99.90;;;;;;4934273;29;20593;-64
2024/03/06 00:29:58;;;;;;;2.78;2.10;;;6.90;99.90;;;;;;4937784;29;20122;-63
2024/03/06 00:32:24;;;;;;;7.45;2.40;;;6.90;99.90;;;;;;4940023;29;20155;-63
2024/03/06 00:34:51;;;;;;;7.35;2.17;;;7.00;99.90;;;;;;4940941;29;20055;-63
2024/03/06 00:37:18;;;;;;;3.58;1.90;;;7.00;99.90;;;;;;4935865;29;20436;-64
2024/03/06 00:39:45;;;;;;;7.07;2.47;;;7.00;99.90;;;;;;4933941;29;20135;-64
2024/03/06 00:42:13;;;;;;;5.38;2.78;;;6.90;99.90;;;;;;4937442;29;20060;-62
2024/03/06 00:44:40;;;;;;;4.53;2.40;;;6.90;99.90;;;;;;4926204;29;20059;-64
2024/03/06 00:47:07;;;;;;;4.55;2.50;;;7.00;99.90;;;;;;4936034;29;20698;-63
2024/03/06 00:49:33;;;;;;;3.92;2.50;;;6.90;99.90;;;;;;4931753;29;20531;-63
2024/03/06 00:52:00;;;;;;;5.93;2.45;;;6.90;99.90;;;;;;4936679;28;20151;-63
2024/03/06 00:54:27;;;;;;;5.32;2.53;;;6.80;99.90;;;;;;4933467;29;20119;-64
2024/03/06 00:56:54;;;;;;;4.05;2.20;;;6.80;99.90;;;;;;4932881;29;20052;-64
2024/03/06 00:59:20;;;;;;;7.78;2.90;;;6.80;99.90;;;;;;4935641;29;20090;-64
2024/03/06 01:01:47;;;;;;;4.38;2.70;;;6.90;99.90;;;;;;4936254;29;20055;-64
2024/03/06 01:04:14;;;;;;;6.13;2.55;;;6.90;99.90;;;;;;4933790;29;20366;-64
2024/03/06 01:06:41;;;;;;;6.10;2.40;;;7.00;99.90;;;;;;4939856;29;20465;-64
2024/03/06 01:09:08;;;;;;;3.58;2.53;;;7.00;99.90;;;;;;4937047;29;20471;-64
2024/03/06 01:11:34;;;;;;;3.72;2.30;;;7.10;99.90;;;;;;4940104;29;20474;-64
2024/03/06 01:14:02;;;;;;;4.32;2.10;;;7.10;99.90;;;;;;4933936;29;20131;-64
2024/03/06 01:16:29;;;;;;;6.68;2.00;;;7.10;99.90;;;;;;4932462;29;20139;-64
2024/03/06 01:18:56;;;;;;;3.28;2.20;;;7.10;99.90;;;;;;4934820;29;20135;-63
2024/03/06 01:21:23;;;;;;;3.60;2.00;;;7.10;99.90;;;;;;4937393;29;20496;-64
2024/03/06 01:23:49;;;;;;;4.55;2.80;;;7.00;99.90;;;;;;4933559;29;20106;-64
2024/03/06 01:26:16;;;;;;;3.97;2.95;;;7.00;99.90;;;;;;4933967;29;20051;-64
2024/03/06 01:28:43;;;;;;;4.43;2.60;;;6.80;99.90;;;;;;4932155;29;20058;-64
2024/03/06 01:31:10;;;;;;;6.57;2.70;;;6.80;99.90;;;;;;4937180;29;20134;-64
2024/03/06 01:33:37;;;;;;;5.13;2.58;;;6.80;99.90;;;;;;4933696;29;20496;-64
2024/03/06 01:36:04;;;;;;;6.05;3.20;;;6.80;99.90;;;;;;4933853;29;20126;-64
2024/03/06 01:38:31;;;;;;;3.72;3.08;;;6.90;99.90;;;;;;4915089;29;20405;-64
2024/03/06 01:40:58;;;;;;;6.35;3.40;;;6.80;99.90;;;;;;4938335;29;20075;-64
2024/03/06 01:43:26;;;;;;;4.53;3.08;;;6.80;99.90;;;;;;4931881;29;20071;-63
2024/03/06 01:45:53;;;;;;;6.93;3.78;;;6.80;99.90;;;;;;4936021;29;20047;-64
2024/03/06 01:48:25;;;;;;;7.43;4.28;;;6.90;99.90;;;;;;4933435;29;20190;-64
2024/03/06 01:50:56;;;;;;;8.00;4.60;;;6.80;99.90;;;;;;4935641;29;20050;-64
2024/03/06 01:53:24;;;;;;;5.57;3.75;;;6.80;99.90;;;;;;4935587;29;20055;-64
2024/03/06 01:55:51;;;;;;;6.55;3.92;;;6.80;99.90;;;;;;4935507;29;20103;-64
2024/03/06 01:58:21;;;;;;;5.68;4.00;;;6.80;99.90;;;;;;4932975;29;20078;-64
2024/03/06 02:00:50;;;;;;;7.05;3.92;;;6.70;99.90;;;;;;4932067;29;20055;-63
2024/03/06 02:03:19;;;;;;;7.15;3.83;;;6.70;99.90;;;;;;4936624;29;20044;-63
2024/03/06 02:05:48;;;;;;;6.30;3.63;;;6.80;99.90;;;;;;4935649;29;20134;-64
2024/03/06 02:08:15;;;;;;;7.40;3.45;;;6.80;99.90;;;;;;4927970;29;20110;-64
2024/03/06 02:10:43;;;;;;;8.00;3.55;;;6.80;99.90;;;;;;4933131;29;20044;-63
2024/03/06 02:13:13;;;;;;;10.18;4.95;;;6.80;99.90;;;;;;4934585;29;20040;-63
2024/03/06 02:15:40;;;;;;;6.53;4.22;;;6.90;99.90;;;;;;4933977;29;20134;-63
2024/03/06 02:18:08;;;;;;;5.95;4.30;;;6.90;99.90;;;;;;4931171;29;20565;-64
2024/03/06 02:20:38;;;;;;;10.10;3.85;;;6.90;99.90;;;;;;4932168;29;20537;-64
2024/03/06 02:23:05;;;;;;;5.32;3.95;;;6.90;99.90;;;;;;4936678;29;20094;-63
2024/03/06 02:25:32;;;;;;;6.55;4.35;;;6.90;99.90;;;;;;4929899;29;20106;-63
2024/03/06 02:27:59;;;;;;;7.22;4.03;;;6.90;99.90;;;;;;4931925;29;20047;-63
2024/03/06 02:30:26;;;;;;;4.97;3.53;;;6.90;99.90;;;;;;4927331;29;20051;-63
2024/03/06 02:32:53;;;;;;;6.20;3.97;;;6.90;99.90;;;;;;4931828;29;20067;-63
2024/03/06 02:35:19;;;;;;;6.10;3.72;;;6.90;99.90;;;;;;4933656;29;20059;-63
2024/03/06 02:37:46;;;;;;;7.38;3.38;;;6.80;99.90;;;;;;4930771;29;20162;-64
2024/03/06 02:40:13;;;;;;;6.53;4.80;;;6.80;99.90;;;;;;4931151;29;20066;-63
2024/03/06 02:42:40;;;;;;;4.95;3.95;;;6.80;99.90;;;;;;4932434;29;20504;-63
2024/03/06 02:45:08;;;;;;;6.80;4.50;;;6.80;99.90;;;;;;4930070;29;20051;-63
2024/03/06 02:47:35;;;;;;;4.18;3.30;;;6.80;99.90;;;;;;4929726;29;20102;-63
2024/03/06 02:50:02;;;;;;;7.80;4.20;;;6.80;99.90;;;;;;4929832;29;20062;-63
2024/03/06 02:52:29;;;;;;;6.78;3.92;;;6.90;99.90;;;;;;4929822;29;20666;-63
2024/03/06 02:54:56;;;;;;;6.95;3.92;;;6.90;99.90;;;;;;4933809;29;20051;-63
2024/03/06 02:57:22;;;;;;;7.28;4.40;;;6.90;99.90;;;;;;4931017;29;20060;-63
2024/03/06 02:59:49;;;;;;;6.57;4.47;;;6.90;99.90;;;;;;4930061;29;20171;-63
2024/03/06 03:02:16;;;;;;;7.40;4.32;;;6.80;99.90;;;;;;4930379;29;20055;-63
2024/03/06 03:04:43;;;;;;;6.78;4.22;;;6.80;99.90;;;;;;4931523;29;20058;-63
2024/03/06 03:07:10;;;;;;;8.65;3.92;;;6.80;99.90;;;;;;4932795;29;20051;-63
2024/03/06 03:09:38;;;;;;;6.30;4.13;;;6.80;99.90;;;;;;4932474;29;20043;-63
2024/03/06 03:12:05;;;;;;;5.13;4.18;;;6.80;99.90;;;;;;4932028;29;20493;-63
2024/03/06 03:14:32;;;;;;;6.38;4.38;;;6.80;99.90;;;;;;4929435;29;20588;-63
2024/03/06 03:17:00;;;;;;;10.65;4.35;;;6.80;99.90;;;;;;4931657;29;20047;-63
2024/03/06 03:19:27;;;;;;;6.78;3.75;;;6.80;99.90;;;;;;4930582;29;20052;-63
2024/03/06 03:21:54;;;;;;;6.05;3.65;;;6.80;99.90;;;;;;4929211;29;20051;-63
2024/03/06 03:24:21;;;;;;;7.00;4.35;;;6.70;99.90;;;;;;4937629;29;20054;-64
2024/03/06 03:26:48;;;;;;;6.15;4.78;;;6.80;99.90;;;;;;4931499;29;20453;-64
2024/03/06 03:29:15;;;;;;;6.00;4.60;;;6.80;99.90;;;;;;4929551;29;20123;-63
2024/03/06 03:31:42;;;;;;;7.55;4.40;;;6.90;99.90;;;;;;4931773;29;20054;-63
2024/03/06 03:34:10;;;;;;;7.07;4.45;;;6.90;99.90;;;;;;4933888;29;20043;-63
2024/03/06 03:36:41;;;;;;;6.63;4.93;;;6.90;99.90;;;;;;4932761;29;20066;-63
2024/03/06 03:39:17;;;;;;;5.78;4.57;;;6.90;99.90;;;;;;4934754;29;20055;-63
2024/03/06 03:41:48;;;;;;;6.05;4.70;;;6.90;99.90;;;;;;4931124;29;20556;-63
2024/03/06 03:44:16;;;;;;;6.95;4.53;;;6.80;99.90;;;;;;4930274;29;20081;-63
2024/03/06 03:46:43;;;;;;;4.60;3.72;;;6.70;99.90;;;;;;4934241;29;20415;-63
2024/03/06 03:49:11;;;;;;;6.85;4.82;;;6.70;99.90;;;;;;4934553;29;20055;-63
2024/03/06 03:51:39;;;;;;;9.23;5.07;;;6.70;99.90;;;;;;4938778;29;20048;-64
2024/03/06 03:54:06;;;;;;;7.43;4.70;;;6.70;99.90;;;;;;4934250;29;20044;-63
2024/03/06 03:56:33;;;;;;;6.18;4.70;;;6.80;99.90;;;;;;4938041;29;20563;-63
2024/03/06 03:59:00;;;;;;;8.35;5.22;;;6.80;99.90;;;;;;4933388;29;20048;-64
2024/03/06 04:01:27;;;;;;;6.13;4.88;;;6.70;99.90;;;;;;4935111;29;20525;-63
2024/03/06 04:03:53;;;;;;;5.70;4.35;;;6.70;99.90;;;;;;4935599;29;20134;-64
2024/03/06 04:06:20;;;;;;;7.70;5.30;;;6.70;99.90;;;;;;4934070;29;20075;-64
2024/03/06 04:08:47;;;;;;;8.63;5.22;;;6.70;99.90;;;;;;4934798;29;20050;-64
2024/03/06 04:11:13;;;;;;;7.70;5.20;;;6.70;99.90;;;;;;4942348;29;20711;-63
2024/03/06 04:13:40;;;;;;;6.38;5.10;;;6.70;99.90;;;;;;4920385;29;20039;-64
2024/03/06 04:16:07;;;;;;;10.85;5.53;;;6.70;99.90;;;;;;4933208;29;20130;-64
2024/03/06 04:18:34;;;;;;;9.45;5.50;;;6.70;99.90;;;;;;4934856;29;20098;-63
2024/03/06 04:21:07;;;;;;;7.88;4.75;;;6.70;99.90;;;;;;4933605;29;20113;-64
2024/03/06 04:23:34;;;;;;;9.15;5.13;;;6.80;99.90;;;;;;4934444;29;20090;-64
2024/03/06 04:26:01;;;;;;;8.38;5.18;;;6.80;99.90;;;;;;4933278;29;20051;-64
2024/03/06 04:28:28;;;;;;;7.68;5.45;;;6.80;99.90;;;;;;4932983;29;20104;-64
2024/03/06 04:30:55;;;;;;;8.75;5.50;;;6.80;99.90;;;;;;4933567;29;20574;-64
2024/03/06 04:33:22;;;;;;;7.97;6.00;;;6.80;99.90;;;;;;4934728;29;20039;-64
2024/03/06 04:35:48;;;;;;;7.88;5.22;;;6.80;99.90;;;;;;4940174;29;20477;-64
2024/03/06 04:38:15;;;;;;;7.45;4.97;;;6.90;99.90;;;;;;4937479;29;20143;-64
2024/03/06 04:40:42;;;;;;;10.63;5.03;;;6.80;99.90;;;;;;4933120;29;20087;-64
2024/03/06 04:43:09;;;;;;;6.15;4.68;;;6.80;99.90;;;;;;4932205;29;20044;-64
2024/03/06 04:45:36;;;;;;;7.60;4.60;;;6.70;99.90;;;;;;4935379;29;20560;-64
2024/03/06 04:48:03;;;;;;;7.47;5.28;;;6.70;99.90;;;;;;4935331;29;20083;-64
2024/03/06 04:50:29;;;;;;;10.23;5.55;;;6.70;99.90;;;;;;4934527;29;20058;-64
2024/03/06 04:52:56;;;;;;;6.93;5.53;;;6.80;99.90;;;;;;4935118;29;20126;-64
2024/03/06 04:55:24;;;;;;;9.10;5.35;;;6.70;99.90;;;;;;4936835;29;20083;-64
2024/03/06 04:57:55;;;;;;;8.77;5.78;;;6.70;99.90;;;;;;4917789;29;20060;-64
2024/03/06 05:00:22;;;;;;;7.88;5.20;;;6.60;99.90;;;;;;4934242;29;20095;-64
2024/03/06 05:02:51;;;;;;;6.07;5.15;;;6.50;99.90;;;;;;4933032;29;20055;-64
2024/03/06 05:05:36;;;;;;;9.55;5.15;;;6.60;99.90;;;;;;4936346;29;20122;-64
2024/03/06 05:08:20;;;;;;;8.57;5.32;;;6.50;99.90;;;;;;4938565;29;20428;-64
2024/03/06 05:11:04;;;;;;;8.40;5.03;;;6.60;99.90;;;;;;4940121;29;20068;-64
2024/03/06 05:13:49;;;;;;;7.68;5.15;;;6.60;99.90;;;;;;4937504;29;20070;-64
2024/03/06 05:16:34;;;;;;;7.32;5.03;;;6.50;99.90;;;;;;4933027;29;21006;-64
2024/03/06 05:19:18;;;;;;;5.95;4.93;;;6.50;99.90;;;;;;4932729;29;20060;-64
2024/03/06 05:22:02;;;;;;;6.45;5.05;;;6.50;99.90;;;;;;4928591;29;20099;-64
2024/03/06 05:24:46;;;;;;;6.85;5.15;;;6.50;99.90;;;;;;4936125;29;20038;-64
2024/03/06 05:27:31;;;;;;;10.82;5.75;;;6.50;99.90;;;;;;4936174;29;20431;-64
2024/03/06 05:30:16;;;;;;;8.13;5.65;;;6.40;99.90;;;;;;4940754;29;20043;-64
2024/03/06 05:33:00;;;;;;;9.15;5.35;;;6.40;99.90;;;;;;4941394;29;20058;-64
2024/03/06 05:35:44;;;;;;;7.10;6.05;;;6.40;99.90;;;;;;4935658;29;20050;-64
2024/03/06 05:38:28;;;;;;;7.28;6.05;;;6.40;99.90;;;;;;4939908;29;20512;-64
2024/03/06 05:41:12;;;;;;;9.70;6.00;;;6.50;99.90;;;;;;4937230;29;20067;-64
2024/03/06 05:43:56;;;;;;;9.25;6.45;;;6.50;99.90;;;;;;4933888;29;20496;-64
2024/03/06 05:46:40;;;;;;;9.93;6.22;;;6.50;99.90;;;;;;4932710;29;20095;-64
2024/03/06 05:49:25;;;;;;;8.25;6.38;;;6.50;99.90;;;;;;4931108;29;20064;-64
2024/03/06 05:52:09;;;;;;;7.60;5.97;;;6.60;99.90;;;;;;4935223;29;20429;-64
2024/03/06 05:54:53;;;;;;;7.43;6.00;;;6.60;99.90;;;;;;4933417;29;20535;-64
2024/03/06 05:57:37;;;;;;;6.35;5.68;;;6.60;99.90;;;;;;4937346;29;20067;-64
2024/03/06 06:00:21;;;;;;;9.35;6.05;;;6.50;99.90;;;;;;4934030;29;20043;-64
2024/03/06 06:02:48;;;;;;;8.68;6.40;;;6.60;99.90;;;;;;4939540;29;20413;-64
2024/03/06 06:05:16;;;;;;;9.45;6.15;;;6.60;99.90;;;;;;4931792;29;20119;-64
2024/03/06 06:07:50;;;;;;;8.05;6.03;;;6.60;99.90;;;;;;4925270;29;20103;-66
2024/03/06 06:10:18;;;;;;;8.85;5.97;;;6.70;99.90;;;;;;4930299;29;20048;-66
2024/03/06 06:12:48;;;;;;;7.97;6.60;;;6.70;99.90;;;;;;4938922;29;20049;-65
2024/03/06 06:15:15;;;;;;;9.75;6.68;;;6.70;99.90;;;;;;4937564;29;20055;-65
2024/03/06 06:17:44;;;;;;;9.82;6.30;;;6.80;99.90;;;;;;4936755;29;20056;-66
2024/03/06 06:20:14;;;;;;;11.40;8.30;;;6.70;99.90;;;;;;4934624;29;20058;-65
2024/03/06 06:22:43;;;;;;;8.80;6.85;;;6.70;99.90;;;;;;4935439;29;20075;-64
2024/03/06 06:25:10;;;;;;;9.55;6.03;;;6.70;99.90;;;;;;4935135;29;20064;-64
2024/03/06 06:27:38;;;;;;;10.27;7.32;;;6.70;99.90;;;;;;4939990;29;20544;-64
2024/03/06 06:30:11;;;;;;;9.68;7.43;;;6.70;99.90;;;;;;4932409;29;20555;-64
2024/03/06 06:32:40;;;;;;;10.00;7.50;;;6.70;99.90;;;;;;4921764;29;20043;-64
2024/03/06 06:35:09;;;;;;;10.95;7.78;;;6.70;99.90;;;;;;4932506;29;20039;-66
2024/03/06 06:37:36;;;;;;;12.63;8.55;;;6.80;99.90;;;;;;4927721;29;20094;-64
2024/03/06 06:40:06;;;;;;;10.40;7.45;;;6.80;99.90;;;;;;4929526;29;20052;-64
2024/03/06 06:42:35;;;;;;;8.88;7.80;;;6.80;99.90;;;;;;4940642;29;20059;-64
2024/03/06 06:45:02;;;;;;;11.32;7.22;;;6.80;99.90;;;;;;4937962;29;20051;-64
2024/03/06 06:47:30;;;;;;;9.48;7.88;;;6.80;99.90;;;;;;4936211;29;20062;-64
2024/03/06 06:49:57;;;;;;;8.80;7.20;;;6.70;99.90;;;;;;4930476;29;20489;-64
2024/03/06 06:52:25;;;;;;;10.73;7.68;;;6.80;99.90;;;;;;4926156;29;20051;-64
2024/03/06 06:54:51;;;;;;;8.05;6.97;;;6.80;99.90;;;;;;4931438;29;20832;-64
2024/03/06 06:57:19;;;;;;;9.85;7.70;;;6.90;99.90;;;;;;4937923;29;20504;-64
2024/03/06 06:59:46;;;;;;;9.75;7.95;;;6.90;99.90;;;;;;4930927;29;20139;-64
2024/03/06 07:02:13;;;;;;;16.35;8.38;;;7.00;99.90;;;;;;4930499;29;20138;-66
2024/03/06 07:04:40;;;;;;;9.73;7.25;;;7.00;99.90;;;;;;4933301;29;20058;-66
2024/03/06 07:07:06;;;;;;;12.50;7.50;;;7.00;99.90;;;;;;4930095;29;20445;-66
2024/03/06 07:09:33;;;;;;;9.75;7.25;;;7.10;99.90;;;;;;4928235;29;20047;-66
2024/03/06 07:12:00;;;;;;;9.27;7.47;;;7.10;99.90;;;;;;4932801;29;20075;-65
2024/03/06 07:14:27;;;;;;;9.95;7.65;;;7.10;99.90;;;;;;4933798;29;20052;-66
2024/03/06 07:16:54;;;;;;;9.68;6.60;;;7.20;99.90;;;;;;4934326;29;20059;-65
2024/03/06 07:19:20;;;;;;;10.80;7.07;;;7.20;99.90;;;;;;4931934;29;20136;-66
2024/03/06 07:21:47;;;;;;;22.80;11.57;;;7.30;99.90;;;;;;4929896;29;20083;-66
2024/03/06 07:24:14;;;;;;;26.30;13.57;;;7.30;99.90;;;;;;4930980;29;20151;-65
2024/03/06 07:26:40;;;;;;;8.60;7.40;;;7.40;99.90;;;;;;4931304;29;20135;-65
2024/03/06 07:29:14;;;;;;;9.13;6.63;;;7.40;99.90;;;;;;4936267;29;20131;-65
2024/03/06 07:31:42;;;;;;;11.13;6.68;;;7.30;99.90;;;;;;4938477;29;20059;-65
2024/03/06 07:34:10;;;;;;;8.45;6.68;;;7.30;99.90;;;;;;4930833;29;20072;-66
2024/03/06 07:36:36;;;;;;;9.52;6.10;;;7.40;99.90;;;;;;4934676;29;20483;-65
2024/03/06 07:39:04;;;;;;;9.45;6.32;;;7.50;99.90;;;;;;4927566;29;20142;-65
2024/03/06 07:41:32;;;;;;;6.50;5.85;;;7.50;99.90;;;;;;4934652;29;20087;-66
2024/03/06 07:44:00;;;;;;;9.30;6.40;;;7.50;99.90;;;;;;4927318;29;20048;-66
2024/03/06 07:46:27;;;;;;;8.85;5.45;;;7.40;99.90;;;;;;4930548;29;20250;-65
2024/03/06 07:48:53;;;;;;;10.52;5.60;;;7.40;99.90;;;;;;4933342;29;20043;-65
2024/03/06 07:51:20;;;;;;;8.57;6.10;;;7.40;99.90;;;;;;4926722;29;20069;-65
2024/03/06 07:53:49;;;;;;;8.02;5.57;;;7.50;99.90;;;;;;4937542;29;20111;-66
2024/03/06 07:56:16;;;;;;;9.85;6.13;;;7.60;99.90;;;;;;4936271;29;20075;-65
2024/03/06 07:58:43;;;;;;;7.85;5.75;;;7.70;99.90;;;;;;4935954;29;20047;-65
2024/03/06 08:01:11;;;;;;;7.95;6.38;;;7.80;99.90;;;;;;4933153;29;20083;-65
2024/03/06 08:03:39;;;;;;;7.10;6.30;;;7.80;99.90;;;;;;4936157;29;20048;-66
2024/03/06 08:06:06;;;;;;;9.00;6.18;;;7.80;99.90;;;;;;4927195;29;20460;-65
2024/03/06 08:08:33;;;;;;;7.03;6.20;;;7.90;99.90;;;;;;4933035;29;20476;-66
2024/03/06 08:10:59;;;;;;;6.90;6.15;;;7.80;99.90;;;;;;4933185;29;20121;-65
2024/03/06 08:13:27;;;;;;;9.10;6.43;;;7.80;99.90;;;;;;4932120;29;20083;-66
2024/03/06 08:15:54;;;;;;;12.90;6.75;;;7.80;99.90;;;;;;4927856;29;20052;-66
2024/03/06 08:18:20;;;;;;;7.45;6.55;;;7.80;99.90;;;;;;4932823;29;20051;-65
2024/03/06 08:20:47;;;;;;;8.60;6.38;;;7.90;99.90;;;;;;4933526;29;20373;-65
2024/03/06 08:23:14;;;;;;;7.20;5.88;;;8.00;99.90;;;;;;4931140;29;20564;-65
2024/03/06 08:25:41;;;;;;;6.80;5.95;;;8.20;99.90;;;;;;4925371;29;20135;-66
2024/03/06 08:28:09;;;;;;;7.72;6.18;;;8.20;99.90;;;;;;4930470;29;20039;-65
2024/03/06 08:30:36;;;;;;;7.03;5.97;;;8.20;99.90;;;;;;4940209;29;20051;-65
2024/03/06 08:33:03;;;;;;;8.10;5.78;;;8.20;99.90;;;;;;4941646;28;20039;-65
2024/03/06 08:35:30;;;;;;;8.23;5.82;;;8.10;99.90;;;;;;4933868;29;20059;-65
2024/03/06 08:37:57;;;;;;;8.57;6.05;;;8.20;99.90;;;;;;4933189;29;20055;-66
2024/03/06 08:40:25;;;;;;;7.88;5.60;;;8.30;99.90;;;;;;4929821;29;20161;-66
2024/03/06 08:42:52;;;;;;;7.97;5.50;;;8.40;99.90;;;;;;4942677;29;20052;-66
2024/03/06 08:45:19;;;;;;;9.05;5.80;;;8.50;99.90;;;;;;4935551;29;20054;-65
2024/03/06 08:47:50;;;;;;;6.53;5.65;;;8.50;99.90;;;;;;4933757;29;20044;-65
2024/03/06 08:50:17;;;;;;;8.70;5.00;;;8.60;99.90;;;;;;4936584;29;20048;-66
2024/03/06 08:52:45;;;;;;;7.32;5.55;;;8.60;99.90;;;;;;4938490;29;20129;-66
2024/03/06 08:55:13;;;;;;;11.95;6.55;;;8.70;99.90;;;;;;4924926;29;20051;-66
2024/03/06 08:57:40;;;;;;;8.57;6.78;;;8.90;99.90;;;;;;4943066;29;20087;-66
2024/03/06 09:00:10;;;;;;;7.30;5.90;;;9.00;99.90;;;;;;4933070;29;20563;-66
2024/03/06 09:02:40;;;;;;;5.57;4.82;;;9.10;99.90;;;;;;4943845;29;20507;-66
2024/03/06 09:05:11;;;;;;;6.65;5.65;;;9.10;99.90;;;;;;4939442;28;20066;-66
2024/03/06 09:07:40;;;;;;;8.23;5.68;;;9.10;99.90;;;;;;4941062;29;20062;-65
2024/03/06 09:10:08;;;;;;;7.70;6.07;;;9.10;99.90;;;;;;4931818;29;20476;-65
2024/03/06 09:12:35;;;;;;;11.38;5.43;;;9.10;99.90;;;;;;4939530;29;20058;-65
2024/03/06 09:15:03;;;;;;;5.63;4.85;;;9.20;99.90;;;;;;4940327;29;20430;-65
2024/03/06 09:17:30;;;;;;;9.55;4.95;;;9.30;99.90;;;;;;4940015;29;20052;-65
2024/03/06 09:19:57;;;;;;;6.05;4.80;;;9.40;99.90;;;;;;4936347;29;20062;-65
2024/03/06 09:22:38;;;;;;;7.57;4.70;;;9.40;99.90;;;;;;4937645;29;20145;-66
2024/03/06 09:25:06;;;;;;;9.63;5.20;;;9.40;99.90;;;;;;4935177;29;20055;-66
2024/03/06 09:27:33;;;;;;;7.07;4.72;;;9.40;99.90;;;;;;4941216;29;20134;-66
2024/03/06 09:30:00;;;;;;;8.43;4.97;;;9.50;99.90;;;;;;4934455;29;20066;-66
2024/03/06 09:32:26;;;;;;;6.38;4.43;;;9.60;99.90;;;;;;4940922;29;20476;-66
2024/03/06 09:34:53;;;;;;;5.43;4.70;;;9.70;99.90;;;;;;4940019;29;20051;-66
2024/03/06 09:37:20;;;;;;;4.82;4.28;;;10.00;99.90;;;;;;4931933;29;20108;-66
2024/03/06 09:39:47;;;;;;;4.38;3.55;;;10.20;99.90;;;;;;4936957;29;20129;-65
2024/03/06 09:42:17;;;;;;;5.22;4.00;;;10.40;99.90;;;;;;4932620;29;20055;-66
2024/03/06 09:44:44;;;;;;;5.68;4.28;;;10.50;99.90;;;;;;4942793;29;20678;-65
2024/03/06 09:47:16;;;;;;;4.70;3.95;;;10.80;99.90;;;;;;4929272;29;20052;-66
2024/03/06 09:49:43;;;;;;;5.93;4.32;;;10.90;99.90;;;;;;4934934;29;20433;-66
2024/03/06 09:52:10;;;;;;;7.03;4.35;;;10.80;99.90;;;;;;4932004;29;20577;-65
2024/03/06 09:54:39;;;;;;;6.00;4.15;;;10.80;99.90;;;;;;4932213;29;20138;-66
2024/03/06 09:57:06;;;;;;;5.70;4.05;;;10.80;99.90;;;;;;4936004;29;20119;-66
2024/03/06 09:59:33;;;;;;;7.13;3.35;;;10.60;99.90;;;;;;4936690;29;20087;-66
2024/03/06 10:02:05;;;;;;;5.65;3.47;;;10.60;99.90;;;;;;4932211;29;20055;-66
2024/03/06 10:04:34;;;;;;;4.50;3.42;;;10.50;99.90;;;;;;4939444;29;20087;-65
2024/03/06 10:07:02;;;;;;;5.03;3.60;;;10.40;99.90;;;;;;4930161;29;20507;-65
2024/03/06 10:09:33;;;;;;;4.28;3.70;;;10.20;99.90;;;;;;4931855;29;20056;-65
2024/03/06 10:11:59;;;;;;;6.60;4.03;;;10.10;99.90;;;;;;4933436;29;20043;-65
2024/03/06 10:14:32;;;;;;;4.88;3.90;;;9.80;99.90;;;;;;4933096;29;20105;-66
2024/03/06 10:17:00;;;;;;;7.88;4.03;;;9.30;99.90;;;;;;4931344;29;20087;-66
2024/03/06 10:19:28;;;;;;;11.80;5.25;;;9.00;99.90;;;;;;4934490;29;20062;-65
2024/03/06 10:21:58;;;;;;;6.13;4.68;;;8.50;99.90;;;;;;4932291;29;20044;-65
2024/03/06 10:24:27;;;;;;;5.85;4.30;;;8.20;99.90;;;;;;4932091;29;20059;-65
2024/03/06 10:26:58;;;;;;;9.07;4.70;;;8.00;99.90;;;;;;4934937;29;20054;-66
2024/03/06 10:29:27;;;;;;;10.25;5.90;;;7.90;99.90;;;;;;4931112;29;20071;-65
2024/03/06 10:31:56;;;;;;;7.30;5.05;;;8.10;99.90;;;;;;4933097;29;20055;-66
2024/03/06 10:34:27;;;;;;;8.57;4.78;;;8.30;99.90;;;;;;4930855;29;20056;-66
2024/03/06 10:37:05;;;;;;;13.13;6.15;;;8.40;99.90;;;;;;4931136;29;20139;-66
2024/03/06 10:39:38;;;;;;;10.55;6.18;;;8.80;99.90;;;;;;4930981;29;20047;-65
2024/03/06 10:42:08;;;;;;;12.15;6.70;;;9.00;99.90;;;;;;4934934;29;20460;-66
2024/03/06 10:44:36;;;;;;;8.50;5.30;;;9.10;99.90;;;;;;4936243;29;20497;-66
2024/03/06 10:47:09;;;;;;;10.40;6.13;;;9.20;99.90;;;;;;4932279;29;20051;-65
2024/03/06 10:49:38;;;;;;;8.60;4.25;;;9.30;99.90;;;;;;4931326;29;20103;-65
2024/03/06 10:52:08;;;;;;;11.27;6.03;;;9.50;99.90;;;;;;4931986;29;20449;-65
2024/03/06 10:54:38;;;;;;;6.53;3.08;;;9.40;99.90;;;;;;4931654;28;20055;-66
2024/03/06 10:57:05;;;;;;;;;;;9.10;99.90;;;;;;4930857;29;20083;-65
2024/03/06 10:59:32;;;;;;;8.50;2.70;;;9.00;99.90;;;;;;4928735;29;19946;-65
2024/03/06 11:02:02;;;;;;;5.40;2.45;;;9.10;99.90;;;;;;4932335;29;20237;-65
2024/03/06 11:04:33;;;;;;;5.88;2.58;;;9.40;99.90;;;;;;4931033;29;20052;-65
2024/03/06 11:07:03;;;;;;;3.92;2.20;;;9.40;99.90;;;;;;4930391;29;20055;-65
2024/03/06 11:09:40;;;;;;;4.90;2.80;;;9.60;99.90;;;;;;4928320;29;20039;-65
2024/03/06 11:12:07;;;;;;;6.63;2.08;;;9.60;99.90;;;;;;4930404;29;20492;-65
2024/03/06 11:14:39;;;;;;;6.25;2.08;;;9.50;99.90;;;;;;4935262;28;20051;-65
2024/03/06 11:17:09;;;;;;;2.28;1.70;;;9.70;99.90;;;;;;4931374;29;20043;-66
2024/03/06 11:20:05;;;;;;;4.78;2.08;;;10.00;99.90;;;;;;4933469;29;20056;-66
2024/03/06 11:23:07;;;;;;;3.40;2.00;;;10.70;99.90;;;;;;4928766;29;20520;-65
2024/03/06 11:25:58;;;;;;;3.67;2.03;;;10.80;99.90;;;;;;4934397;29;20050;-65
2024/03/06 11:28:25;;;;;;;;;;;11.00;99.90;;;;;;4930388;29;20050;-65
2024/03/06 11:30:54;;;;;;;4.85;2.10;;;11.00;99.90;;;;;;4933688;29;19929;-65
2024/03/06 11:33:21;;;;;;;3.85;2.30;;;11.30;99.90;;;;;;4929815;29;20044;-65
2024/03/06 11:36:13;;;;;;;3.70;1.90;;;10.90;99.90;;;;;;4920880;29;20055;-65
2024/03/06 11:38:41;;;;;;;4.50;2.17;;;10.90;99.90;;;;;;4929554;29;20128;-65
2024/03/06 11:41:09;;;;;;;5.13;2.40;;;10.80;99.90;;;;;;4933688;29;20697;-66
2024/03/06 11:43:43;;;;;;;3.00;2.28;;;10.50;99.90;;;;;;4941345;29;20051;-65
2024/03/06 11:46:10;;;;;;;3.28;2.10;;;10.00;99.90;;;;;;4929835;29;20142;-65
2024/03/06 11:48:38;;;;;;;2.15;1.73;;;10.10;99.90;;;;;;4934984;29;20048;-66
2024/03/06 11:51:05;;;;;;;2.50;1.80;;;10.50;99.90;;;;;;4930125;29;20070;-65
2024/03/06 11:53:35;;;;;;;3.75;1.95;;;10.60;99.90;;;;;;4932054;29;20048;-65
2024/03/06 11:56:07;;;;;;;4.13;1.45;;;10.40;99.90;;;;;;4941976;29;20563;-65
2024/03/06 11:58:34;;;;;;;3.47;1.70;;;10.50;99.90;;;;;;4929909;28;20052;-65
2024/03/06 12:01:01;;;;;;;5.28;1.70;;;10.80;99.90;;;;;;4930083;29;20050;-66
2024/03/06 12:03:28;;;;;;;4.10;2.10;;;10.80;99.90;;;;;;4931046;29;20055;-65
2024/03/06 12:05:55;;;;;;;2.45;1.63;;;10.60;99.90;;;;;;4934373;29;20051;-65
2024/03/06 12:08:21;;;;;;;4.50;1.90;;;10.80;99.90;;;;;;4932108;29;20083;-65
2024/03/06 12:10:48;;;;;;;3.28;1.45;;;10.80;99.90;;;;;;4940742;29;20046;-66
2024/03/06 12:13:16;;;;;;;2.88;1.50;;;10.80;99.90;;;;;;4935914;29;20048;-66
2024/03/06 12:15:44;;;;;;;4.25;1.63;;;10.90;99.90;;;;;;4938669;29;20075;-66
2024/03/06 12:18:11;;;;;;;3.65;1.33;;;11.10;99.90;;;;;;4937055;29;20075;-65
2024/03/06 12:20:45;;;;;;;2.80;1.55;;;11.20;99.90;;;;;;4933983;29;20603;-65
2024/03/06 12:23:26;;;;;;;3.05;1.38;;;11.30;99.90;;;;;;4932780;29;20153;-64
2024/03/06 12:26:06;;;;;;;3.17;1.33;;;11.40;99.90;;;;;;4939666;29;20107;-64
2024/03/06 12:28:34;;;;;;;2.22;1.10;;;11.50;99.90;;;;;;4934343;29;20156;-64
2024/03/06 12:31:04;;;;;;;4.65;1.60;;;11.30;99.90;;;;;;4936659;29;20110;-64
2024/03/06 12:33:34;;;;;;;5.40;1.42;;;11.10;99.90;;;;;;4933280;29;20044;-65
2024/03/06 12:36:01;;;;;;;2.75;1.60;;;10.80;99.90;;;;;;4935561;29;20493;-64
2024/03/06 12:38:32;;;;;;;3.03;1.30;;;11.00;99.90;;;;;;4933381;29;20107;-65
2024/03/06 12:40:59;;;;;;;;;;;11.00;99.90;;;;;;4934474;29;20103;-64
2024/03/06 12:43:28;;;;;;;4.13;1.20;;;10.90;99.90;;;;;;4935802;29;19923;-64
2024/03/06 12:45:57;;;;;;;1.77;0.90;;;10.40;99.90;;;;;;4938000;29;20054;-64
2024/03/06 12:48:25;;;;;;;1.77;0.98;;;10.10;99.90;;;;;;4933149;29;20539;-64
2024/03/06 12:50:54;;;;;;;1.98;1.02;;;10.00;99.90;;;;;;4933143;29;20054;-64
2024/03/06 12:53:21;;;;;;;2.30;1.33;;;10.00;99.90;;;;;;4935120;29;20054;-64
2024/03/06 12:55:48;;;;;;;2.95;1.10;;;10.30;99.90;;;;;;4937638;29;20085;-64
2024/03/06 12:58:15;;;;;;;4.95;1.08;;;10.30;99.90;;;;;;4932859;29;20112;-64
2024/03/06 13:00:42;;;;;;;1.40;0.90;;;10.00;99.90;;;;;;4933268;29;20056;-64
2024/03/06 13:03:10;;;;;;;3.47;1.27;;;9.90;99.90;;;;;;4937652;29;20123;-64
2024/03/06 13:05:37;;;;;;;0.93;0.85;;;10.30;99.90;;;;;;4938749;29;20059;-64